sensor_id;sensor_type;location;lat;lon;timestamp;temperature;humidity
16074;DHT22;8141;52.664;5.074;2023-11-19T00:01:57;19.20;63.20
16074;DHT22;8141;52.664;5.074;2023-11-19T00:04:22;19.20;63.10
16074;DHT22;8141;52.664;5.074;2023-11-19T00:06:48;19.20;63.10
16074;DHT22;8141;52.664;5.074;2023-11-19T00:09:14;19.20;63.00
16074;DHT22;8141;52.664;5.074;2023-11-19T00:11:42;19.20;63.00
16074;DHT22;8141;52.664;5.074;2023-11-19T00:14:07;19.20;63.10
16074;DHT22;8141;52.664;5.074;2023-11-19T00:16:34;19.20;63.00
16074;DHT22;8141;52.664;5.074;2023-11-19T00:19:00;19.20;63.00
16074;DHT22;8141;52.664;5.074;2023-11-19T00:21:25;19.20;63.00
16074;DHT22;8141;52.664;5.074;2023-11-19T00:23:54;19.10;63.00
16074;DHT22;8141;52.664;5.074;2023-11-19T00:26:19;19.20;63.00
16074;DHT22;8141;52.664;5.074;2023-11-19T00:28:45;19.10;62.90
16074;DHT22;8141;52.664;5.074;2023-11-19T00:31:13;19.20;63.00
16074;DHT22;8141;52.664;5.074;2023-11-19T00:33:38;19.20;63.00
16074;DHT22;8141;52.664;5.074;2023-11-19T00:36:04;19.20;63.10
16074;DHT22;8141;52.664;5.074;2023-11-19T00:38:31;19.20;63.00
16074;DHT22;8141;52.664;5.074;2023-11-19T00:40:56;19.20;63.00
16074;DHT22;8141;52.664;5.074;2023-11-19T00:43:22;19.20;63.00
16074;DHT22;8141;52.664;5.074;2023-11-19T00:45:47;19.20;63.00
16074;DHT22;8141;52.664;5.074;2023-11-19T00:48:15;19.20;63.00
16074;DHT22;8141;52.664;5.074;2023-11-19T00:50:42;19.20;63.00
16074;DHT22;8141;52.664;5.074;2023-11-19T00:53:09;19.20;63.10
16074;DHT22;8141;52.664;5.074;2023-11-19T00:55:35;19.20;63.00
16074;DHT22;8141;52.664;5.074;2023-11-19T00:58:01;19.20;63.00
16074;DHT22;8141;52.664;5.074;2023-11-19T01:00:28;19.20;63.00
16074;DHT22;8141;52.664;5.074;2023-11-19T01:02:54;19.20;63.00
16074;DHT22;8141;52.664;5.074;2023-11-19T01:05:20;19.20;63.00
16074;DHT22;8141;52.664;5.074;2023-11-19T01:07:47;19.20;63.00
16074;DHT22;8141;52.664;5.074;2023-11-19T01:10:13;19.20;63.00
16074;DHT22;8141;52.664;5.074;2023-11-19T01:12:41;19.20;63.00
16074;DHT22;8141;52.664;5.074;2023-11-19T01:15:07;19.20;63.00
16074;DHT22;8141;52.664;5.074;2023-11-19T01:17:33;19.20;63.00
16074;DHT22;8141;52.664;5.074;2023-11-19T01:19:58;19.20;63.20
16074;DHT22;8141;52.664;5.074;2023-11-19T01:22:24;19.20;63.30
16074;DHT22;8141;52.664;5.074;2023-11-19T01:24:50;19.20;63.40
16074;DHT22;8141;52.664;5.074;2023-11-19T01:27:17;19.20;63.20
16074;DHT22;8141;52.664;5.074;2023-11-19T01:29:43;19.20;63.30
16074;DHT22;8141;52.664;5.074;2023-11-19T01:32:08;19.20;63.40
16074;DHT22;8141;52.664;5.074;2023-11-19T01:34:34;19.20;63.40
16074;DHT22;8141;52.664;5.074;2023-11-19T01:37:01;19.30;63.50
16074;DHT22;8141;52.664;5.074;2023-11-19T01:39:26;19.30;63.50
16074;DHT22;8141;52.664;5.074;2023-11-19T01:41:52;19.30;63.50
16074;DHT22;8141;52.664;5.074;2023-11-19T01:44:19;19.30;63.50
16074;DHT22;8141;52.664;5.074;2023-11-19T01:46:45;19.30;63.60
16074;DHT22;8141;52.664;5.074;2023-11-19T01:49:14;19.30;63.60
16074;DHT22;8141;52.664;5.074;2023-11-19T01:51:39;19.30;63.80
16074;DHT22;8141;52.664;5.074;2023-11-19T01:54:06;19.30;63.70
16074;DHT22;8141;52.664;5.074;2023-11-19T01:56:32;19.30;63.80
16074;DHT22;8141;52.664;5.074;2023-11-19T01:58:59;19.30;63.70
16074;DHT22;8141;52.664;5.074;2023-11-19T02:01:24;19.30;63.70
16074;DHT22;8141;52.664;5.074;2023-11-19T02:03:51;19.30;63.90
16074;DHT22;8141;52.664;5.074;2023-11-19T02:06:17;19.30;63.90
16074;DHT22;8141;52.664;5.074;2023-11-19T02:08:42;19.30;63.90
16074;DHT22;8141;52.664;5.074;2023-11-19T02:11:08;19.30;63.90
16074;DHT22;8141;52.664;5.074;2023-11-19T02:13:35;19.30;64.00
16074;DHT22;8141;52.664;5.074;2023-11-19T02:16:02;19.30;64.00
16074;DHT22;8141;52.664;5.074;2023-11-19T02:18:29;19.30;64.10
16074;DHT22;8141;52.664;5.074;2023-11-19T02:20:58;19.40;64.20
16074;DHT22;8141;52.664;5.074;2023-11-19T02:23:27;19.40;64.20
16074;DHT22;8141;52.664;5.074;2023-11-19T02:26:05;19.30;64.10
16074;DHT22;8141;52.664;5.074;2023-11-19T02:29:05;19.40;64.20
16074;DHT22;8141;52.664;5.074;2023-11-19T02:31:32;19.40;64.30
16074;DHT22;8141;52.664;5.074;2023-11-19T02:33:57;19.40;64.20
16074;DHT22;8141;52.664;5.074;2023-11-19T02:36:25;19.30;64.20
16074;DHT22;8141;52.664;5.074;2023-11-19T02:38:51;19.40;64.30
16074;DHT22;8141;52.664;5.074;2023-11-19T02:41:16;19.40;64.40
16074;DHT22;8141;52.664;5.074;2023-11-19T02:43:42;19.30;64.20
16074;DHT22;8141;52.664;5.074;2023-11-19T02:46:07;19.40;64.30
16074;DHT22;8141;52.664;5.074;2023-11-19T02:48:34;19.40;64.40
16074;DHT22;8141;52.664;5.074;2023-11-19T02:51:03;19.40;64.40
16074;DHT22;8141;52.664;5.074;2023-11-19T02:53:30;19.40;65.00
16074;DHT22;8141;52.664;5.074;2023-11-19T02:55:56;19.40;64.40
16074;DHT22;8141;52.664;5.074;2023-11-19T02:58:27;19.40;64.40
16074;DHT22;8141;52.664;5.074;2023-11-19T03:00:54;19.40;64.50
16074;DHT22;8141;52.664;5.074;2023-11-19T03:03:25;19.40;64.60
16074;DHT22;8141;52.664;5.074;2023-11-19T03:05:56;19.40;64.60
16074;DHT22;8141;52.664;5.074;2023-11-19T03:08:22;19.40;64.60
16074;DHT22;8141;52.664;5.074;2023-11-19T03:10:48;19.40;64.60
16074;DHT22;8141;52.664;5.074;2023-11-19T03:13:14;19.40;64.60
16074;DHT22;8141;52.664;5.074;2023-11-19T03:15:40;19.40;64.70
16074;DHT22;8141;52.664;5.074;2023-11-19T03:18:06;19.40;64.80
16074;DHT22;8141;52.664;5.074;2023-11-19T03:20:32;19.40;64.70
16074;DHT22;8141;52.664;5.074;2023-11-19T03:22:58;19.40;64.90
16074;DHT22;8141;52.664;5.074;2023-11-19T03:25:27;19.40;65.00
16074;DHT22;8141;52.664;5.074;2023-11-19T03:27:58;19.40;65.00
16074;DHT22;8141;52.664;5.074;2023-11-19T03:30:24;19.40;65.10
16074;DHT22;8141;52.664;5.074;2023-11-19T03:32:50;19.40;65.10
16074;DHT22;8141;52.664;5.074;2023-11-19T03:35:16;19.40;65.20
16074;DHT22;8141;52.664;5.074;2023-11-19T03:37:41;19.40;65.20
16074;DHT22;8141;52.664;5.074;2023-11-19T03:40:08;19.40;65.20
16074;DHT22;8141;52.664;5.074;2023-11-19T03:42:35;19.40;65.30
16074;DHT22;8141;52.664;5.074;2023-11-19T03:45:01;19.40;65.30
16074;DHT22;8141;52.664;5.074;2023-11-19T03:47:28;19.40;65.30
16074;DHT22;8141;52.664;5.074;2023-11-19T03:49:54;19.40;65.30
16074;DHT22;8141;52.664;5.074;2023-11-19T03:52:20;19.40;65.30
16074;DHT22;8141;52.664;5.074;2023-11-19T03:54:45;19.40;65.40
16074;DHT22;8141;52.664;5.074;2023-11-19T03:57:14;19.40;65.40
16074;DHT22;8141;52.664;5.074;2023-11-19T03:59:41;19.50;65.40
16074;DHT22;8141;52.664;5.074;2023-11-19T04:02:06;19.40;65.30
16074;DHT22;8141;52.664;5.074;2023-11-19T04:04:32;19.40;65.30
16074;DHT22;8141;52.664;5.074;2023-11-19T04:06:59;19.50;65.50
16074;DHT22;8141;52.664;5.074;2023-11-19T04:09:26;19.50;65.50
16074;DHT22;8141;52.664;5.074;2023-11-19T04:11:52;19.50;65.50
16074;DHT22;8141;52.664;5.074;2023-11-19T04:14:17;19.50;65.50
16074;DHT22;8141;52.664;5.074;2023-11-19T04:16:46;19.40;65.40
16074;DHT22;8141;52.664;5.074;2023-11-19T04:19:12;19.40;65.50
16074;DHT22;8141;52.664;5.074;2023-11-19T04:21:40;19.50;65.50
16074;DHT22;8141;52.664;5.074;2023-11-19T04:24:09;19.40;65.50
16074;DHT22;8141;52.664;5.074;2023-11-19T04:26:44;19.40;65.50
16074;DHT22;8141;52.664;5.074;2023-11-19T04:29:14;19.50;65.50
16074;DHT22;8141;52.664;5.074;2023-11-19T04:31:40;19.50;65.50
16074;DHT22;8141;52.664;5.074;2023-11-19T04:34:06;19.50;65.50
16074;DHT22;8141;52.664;5.074;2023-11-19T04:36:32;19.50;65.50
16074;DHT22;8141;52.664;5.074;2023-11-19T04:39:01;19.50;65.40
16074;DHT22;8141;52.664;5.074;2023-11-19T04:41:27;19.50;65.40
16074;DHT22;8141;52.664;5.074;2023-11-19T04:43:53;19.50;65.40
16074;DHT22;8141;52.664;5.074;2023-11-19T04:46:19;19.50;65.60
16074;DHT22;8141;52.664;5.074;2023-11-19T04:48:45;19.50;65.70
16074;DHT22;8141;52.664;5.074;2023-11-19T04:51:10;19.50;65.80
16074;DHT22;8141;52.664;5.074;2023-11-19T04:53:36;19.40;65.90
16074;DHT22;8141;52.664;5.074;2023-11-19T04:56:07;19.50;66.00
16074;DHT22;8141;52.664;5.074;2023-11-19T04:58:36;19.50;66.10
16074;DHT22;8141;52.664;5.074;2023-11-19T05:01:03;19.50;66.20
16074;DHT22;8141;52.664;5.074;2023-11-19T05:03:29;19.50;66.30
16074;DHT22;8141;52.664;5.074;2023-11-19T05:05:58;19.50;66.30
16074;DHT22;8141;52.664;5.074;2023-11-19T05:08:24;19.50;66.30
16074;DHT22;8141;52.664;5.074;2023-11-19T05:10:50;19.50;66.40
16074;DHT22;8141;52.664;5.074;2023-11-19T05:13:15;19.50;66.40
16074;DHT22;8141;52.664;5.074;2023-11-19T05:15:42;19.50;66.40
16074;DHT22;8141;52.664;5.074;2023-11-19T05:18:07;19.50;66.40
16074;DHT22;8141;52.664;5.074;2023-11-19T05:20:34;19.50;66.50
16074;DHT22;8141;52.664;5.074;2023-11-19T05:22:59;19.50;66.40
16074;DHT22;8141;52.664;5.074;2023-11-19T05:25:26;19.60;66.30
16074;DHT22;8141;52.664;5.074;2023-11-19T05:27:52;19.50;66.60
16074;DHT22;8141;52.664;5.074;2023-11-19T05:30:18;19.50;66.50
16074;DHT22;8141;52.664;5.074;2023-11-19T05:32:43;19.50;66.60
16074;DHT22;8141;52.664;5.074;2023-11-19T05:35:09;19.50;66.70
16074;DHT22;8141;52.664;5.074;2023-11-19T05:37:35;19.50;66.70
16074;DHT22;8141;52.664;5.074;2023-11-19T05:40:01;19.50;66.60
16074;DHT22;8141;52.664;5.074;2023-11-19T05:42:29;19.50;66.70
16074;DHT22;8141;52.664;5.074;2023-11-19T05:44:54;19.60;66.70
16074;DHT22;8141;52.664;5.074;2023-11-19T05:47:20;19.60;66.70
16074;DHT22;8141;52.664;5.074;2023-11-19T05:49:45;19.60;66.60
16074;DHT22;8141;52.664;5.074;2023-11-19T05:52:11;19.60;66.80
16074;DHT22;8141;52.664;5.074;2023-11-19T05:54:37;19.60;66.80
16074;DHT22;8141;52.664;5.074;2023-11-19T05:57:06;19.50;66.70
16074;DHT22;8141;52.664;5.074;2023-11-19T05:59:35;19.60;66.80
16074;DHT22;8141;52.664;5.074;2023-11-19T06:02:01;19.60;66.90
16074;DHT22;8141;52.664;5.074;2023-11-19T06:04:27;19.50;66.70
16074;DHT22;8141;52.664;5.074;2023-11-19T06:06:53;19.60;66.90
16074;DHT22;8141;52.664;5.074;2023-11-19T06:09:20;19.60;67.50
16074;DHT22;8141;52.664;5.074;2023-11-19T06:11:48;19.60;66.80
16074;DHT22;8141;52.664;5.074;2023-11-19T06:14:16;19.60;66.80
16074;DHT22;8141;52.664;5.074;2023-11-19T06:16:42;19.60;66.70
16074;DHT22;8141;52.664;5.074;2023-11-19T06:19:07;19.60;66.80
16074;DHT22;8141;52.664;5.074;2023-11-19T06:21:33;19.60;66.70
16074;DHT22;8141;52.664;5.074;2023-11-19T06:23:58;19.60;67.40
16074;DHT22;8141;52.664;5.074;2023-11-19T06:26:24;19.60;66.70
16074;DHT22;8141;52.664;5.074;2023-11-19T06:28:50;19.60;66.70
16074;DHT22;8141;52.664;5.074;2023-11-19T06:31:15;19.60;66.60
16074;DHT22;8141;52.664;5.074;2023-11-19T06:33:41;19.60;66.90
16074;DHT22;8141;52.664;5.074;2023-11-19T06:36:08;19.60;66.90
16074;DHT22;8141;52.664;5.074;2023-11-19T06:38:34;19.60;66.80
16074;DHT22;8141;52.664;5.074;2023-11-19T06:41:00;19.60;67.00
16074;DHT22;8141;52.664;5.074;2023-11-19T06:43:26;19.60;66.90
16074;DHT22;8141;52.664;5.074;2023-11-19T06:45:53;19.60;66.90
16074;DHT22;8141;52.664;5.074;2023-11-19T06:48:19;19.60;67.00
16074;DHT22;8141;52.664;5.074;2023-11-19T06:50:44;19.60;66.90
16074;DHT22;8141;52.664;5.074;2023-11-19T06:53:10;19.60;66.80
16074;DHT22;8141;52.664;5.074;2023-11-19T06:55:35;19.60;66.90
16074;DHT22;8141;52.664;5.074;2023-11-19T06:58:01;19.60;66.70
16074;DHT22;8141;52.664;5.074;2023-11-19T07:00:28;19.60;66.80
16074;DHT22;8141;52.664;5.074;2023-11-19T07:02:54;19.60;66.90
16074;DHT22;8141;52.664;5.074;2023-11-19T07:05:20;19.60;66.90
16074;DHT22;8141;52.664;5.074;2023-11-19T07:07:46;19.60;66.80
16074;DHT22;8141;52.664;5.074;2023-11-19T07:10:12;19.60;66.80
16074;DHT22;8141;52.664;5.074;2023-11-19T07:12:38;19.60;66.80
16074;DHT22;8141;52.664;5.074;2023-11-19T07:15:03;19.60;66.70
16074;DHT22;8141;52.664;5.074;2023-11-19T07:17:30;19.60;66.70
16074;DHT22;8141;52.664;5.074;2023-11-19T07:19:56;19.60;66.70
16074;DHT22;8141;52.664;5.074;2023-11-19T07:22:24;19.60;66.70
16074;DHT22;8141;52.664;5.074;2023-11-19T07:24:50;19.60;66.60
16074;DHT22;8141;52.664;5.074;2023-11-19T07:27:17;19.60;66.60
16074;DHT22;8141;52.664;5.074;2023-11-19T07:29:43;19.60;66.70
16074;DHT22;8141;52.664;5.074;2023-11-19T07:32:10;19.60;66.60
16074;DHT22;8141;52.664;5.074;2023-11-19T07:34:36;19.60;66.70
16074;DHT22;8141;52.664;5.074;2023-11-19T07:37:01;19.60;66.60
16074;DHT22;8141;52.664;5.074;2023-11-19T07:39:31;19.60;66.60
16074;DHT22;8141;52.664;5.074;2023-11-19T07:41:57;19.60;66.60
16074;DHT22;8141;52.664;5.074;2023-11-19T07:44:22;19.60;66.60
16074;DHT22;8141;52.664;5.074;2023-11-19T07:46:48;19.60;66.60
16074;DHT22;8141;52.664;5.074;2023-11-19T07:49:14;19.60;66.60
16074;DHT22;8141;52.664;5.074;2023-11-19T07:51:39;19.60;66.60
16074;DHT22;8141;52.664;5.074;2023-11-19T07:54:05;19.60;66.60
16074;DHT22;8141;52.664;5.074;2023-11-19T07:56:34;19.60;66.60
16074;DHT22;8141;52.664;5.074;2023-11-19T07:59:01;19.60;66.70
16074;DHT22;8141;52.664;5.074;2023-11-19T08:01:27;19.60;66.70
16074;DHT22;8141;52.664;5.074;2023-11-19T08:03:53;19.60;66.90
16074;DHT22;8141;52.664;5.074;2023-11-19T08:06:19;19.60;66.90
16074;DHT22;8141;52.664;5.074;2023-11-19T08:08:44;19.60;66.90
16074;DHT22;8141;52.664;5.074;2023-11-19T08:11:10;19.60;66.80
16074;DHT22;8141;52.664;5.074;2023-11-19T08:13:36;19.70;67.00
16074;DHT22;8141;52.664;5.074;2023-11-19T08:16:01;19.70;66.90
16074;DHT22;8141;52.664;5.074;2023-11-19T08:18:27;19.60;66.90
16074;DHT22;8141;52.664;5.074;2023-11-19T08:20:53;19.60;66.80
16074;DHT22;8141;52.664;5.074;2023-11-19T08:23:19;19.70;67.10
16074;DHT22;8141;52.664;5.074;2023-11-19T08:25:45;19.70;67.00
16074;DHT22;8141;52.664;5.074;2023-11-19T08:28:10;19.70;67.10
16074;DHT22;8141;52.664;5.074;2023-11-19T08:30:36;19.70;67.10
16074;DHT22;8141;52.664;5.074;2023-11-19T08:33:02;19.70;67.10
16074;DHT22;8141;52.664;5.074;2023-11-19T08:35:32;19.70;67.20
16074;DHT22;8141;52.664;5.074;2023-11-19T08:37:58;19.70;67.20
16074;DHT22;8141;52.664;5.074;2023-11-19T08:40:24;19.70;67.20
16074;DHT22;8141;52.664;5.074;2023-11-19T08:42:51;19.70;67.20
16074;DHT22;8141;52.664;5.074;2023-11-19T08:45:16;19.60;67.10
16074;DHT22;8141;52.664;5.074;2023-11-19T08:47:42;19.70;67.80
16074;DHT22;8141;52.664;5.074;2023-11-19T08:50:08;19.70;67.60
16074;DHT22;8141;52.664;5.074;2023-11-19T08:52:34;19.70;66.90
16074;DHT22;8141;52.664;5.074;2023-11-19T08:55:00;19.70;66.30
16074;DHT22;8141;52.664;5.074;2023-11-19T08:57:26;19.70;66.10
16074;DHT22;8141;52.664;5.074;2023-11-19T08:59:51;19.70;65.90
16074;DHT22;8141;52.664;5.074;2023-11-19T09:02:17;19.60;65.70
16074;DHT22;8141;52.664;5.074;2023-11-19T09:04:43;19.60;65.20
16074;DHT22;8141;52.664;5.074;2023-11-19T09:07:09;19.60;65.50
16074;DHT22;8141;52.664;5.074;2023-11-19T09:09:35;19.60;65.20
16074;DHT22;8141;52.664;5.074;2023-11-19T09:12:02;19.60;65.10
16074;DHT22;8141;52.664;5.074;2023-11-19T09:14:29;19.50;64.90
16074;DHT22;8141;52.664;5.074;2023-11-19T09:16:55;19.50;64.80
16074;DHT22;8141;52.664;5.074;2023-11-19T09:19:21;19.50;64.70
16074;DHT22;8141;52.664;5.074;2023-11-19T09:21:47;19.50;64.70
16074;DHT22;8141;52.664;5.074;2023-11-19T09:24:14;19.50;64.80
16074;DHT22;8141;52.664;5.074;2023-11-19T09:26:40;19.50;64.60
16074;DHT22;8141;52.664;5.074;2023-11-19T09:29:07;19.50;64.70
16074;DHT22;8141;52.664;5.074;2023-11-19T09:31:33;19.50;64.60
16074;DHT22;8141;52.664;5.074;2023-11-19T09:33:59;19.50;64.60
16074;DHT22;8141;52.664;5.074;2023-11-19T09:36:25;19.50;64.60
16074;DHT22;8141;52.664;5.074;2023-11-19T09:38:50;19.40;64.60
16074;DHT22;8141;52.664;5.074;2023-11-19T09:41:16;19.50;65.20
16074;DHT22;8141;52.664;5.074;2023-11-19T09:43:44;19.40;64.60
16074;DHT22;8141;52.664;5.074;2023-11-19T09:46:10;19.40;64.50
16074;DHT22;8141;52.664;5.074;2023-11-19T09:48:37;19.40;64.60
16074;DHT22;8141;52.664;5.074;2023-11-19T09:51:10;19.40;64.50
16074;DHT22;8141;52.664;5.074;2023-11-19T09:53:36;19.40;64.40
16074;DHT22;8141;52.664;5.074;2023-11-19T09:56:03;19.50;64.70
16074;DHT22;8141;52.664;5.074;2023-11-19T09:58:30;19.40;64.50
16074;DHT22;8141;52.664;5.074;2023-11-19T10:00:59;19.40;65.00
16074;DHT22;8141;52.664;5.074;2023-11-19T10:03:28;19.40;64.60
16074;DHT22;8141;52.664;5.074;2023-11-19T10:05:59;19.40;64.60
16074;DHT22;8141;52.664;5.074;2023-11-19T10:08:26;19.40;64.40
16074;DHT22;8141;52.664;5.074;2023-11-19T10:10:52;19.40;64.40
16074;DHT22;8141;52.664;5.074;2023-11-19T10:13:17;19.40;64.40
16074;DHT22;8141;52.664;5.074;2023-11-19T10:15:43;19.40;64.50
16074;DHT22;8141;52.664;5.074;2023-11-19T10:18:09;19.40;64.40
16074;DHT22;8141;52.664;5.074;2023-11-19T10:20:35;19.40;64.50
16074;DHT22;8141;52.664;5.074;2023-11-19T10:23:05;19.40;64.50
16074;DHT22;8141;52.664;5.074;2023-11-19T10:25:31;19.40;64.30
16074;DHT22;8141;52.664;5.074;2023-11-19T10:27:58;19.40;64.50
16074;DHT22;8141;52.664;5.074;2023-11-19T10:30:24;19.30;64.50
16074;DHT22;8141;52.664;5.074;2023-11-19T10:33:04;19.30;64.50
16074;DHT22;8141;52.664;5.074;2023-11-19T10:35:33;19.30;64.50
16074;DHT22;8141;52.664;5.074;2023-11-19T10:38:00;19.40;64.50
16074;DHT22;8141;52.664;5.074;2023-11-19T10:40:39;19.40;64.30
16074;DHT22;8141;52.664;5.074;2023-11-19T10:43:08;19.30;64.40
16074;DHT22;8141;52.664;5.074;2023-11-19T10:45:37;19.30;64.40
16074;DHT22;8141;52.664;5.074;2023-11-19T10:48:04;19.40;64.40
16074;DHT22;8141;52.664;5.074;2023-11-19T10:50:34;19.40;64.40
16074;DHT22;8141;52.664;5.074;2023-11-19T10:53:01;19.40;64.40
16074;DHT22;8141;52.664;5.074;2023-11-19T10:55:32;19.40;64.10
16074;DHT22;8141;52.664;5.074;2023-11-19T10:58:01;19.30;64.20
16074;DHT22;8141;52.664;5.074;2023-11-19T11:01:16;19.30;64.20
16074;DHT22;8141;52.664;5.074;2023-11-19T11:03:18;19.30;64.20
16074;DHT22;8141;52.664;5.074;2023-11-19T11:05:46;19.30;64.20
16074;DHT22;8141;52.664;5.074;2023-11-19T11:08:13;19.30;64.20
16074;DHT22;8141;52.664;5.074;2023-11-19T11:13:35;19.40;64.10
16074;DHT22;8141;52.664;5.074;2023-11-19T11:16:02;19.40;64.10
16074;DHT22;8141;52.664;5.074;2023-11-19T11:18:29;19.30;64.00
16074;DHT22;8141;52.664;5.074;2023-11-19T11:20:58;19.40;64.10
16074;DHT22;8141;52.664;5.074;2023-11-19T11:26:16;19.30;64.10
16074;DHT22;8141;52.664;5.074;2023-11-19T11:29:01;19.30;63.90
16074;DHT22;8141;52.664;5.074;2023-11-19T11:33:59;19.30;64.00
16074;DHT22;8141;52.664;5.074;2023-11-19T11:36:36;19.30;63.80
16074;DHT22;8141;52.664;5.074;2023-11-19T11:39:09;19.30;63.70
16074;DHT22;8141;52.664;5.074;2023-11-19T11:41:35;19.30;63.70
16074;DHT22;8141;52.664;5.074;2023-11-19T11:44:01;19.30;63.70
16074;DHT22;8141;52.664;5.074;2023-11-19T11:49:02;19.30;63.50
16074;DHT22;8141;52.664;5.074;2023-11-19T11:54:10;19.30;63.60
16074;DHT22;8141;52.664;5.074;2023-11-19T11:59:48;19.30;63.60
16074;DHT22;8141;52.664;5.074;2023-11-19T12:02:16;19.30;63.70
16074;DHT22;8141;52.664;5.074;2023-11-19T12:04:43;19.30;63.90
16074;DHT22;8141;52.664;5.074;2023-11-19T12:07:13;19.30;64.20
16074;DHT22;8141;52.664;5.074;2023-11-19T12:09:47;19.30;64.00
16074;DHT22;8141;52.664;5.074;2023-11-19T12:20:07;19.30;63.60
16074;DHT22;8141;52.664;5.074;2023-11-19T12:22:37;19.30;63.50
16074;DHT22;8141;52.664;5.074;2023-11-19T12:25:04;19.30;63.70
16074;DHT22;8141;52.664;5.074;2023-11-19T12:27:31;19.30;63.70
16074;DHT22;8141;52.664;5.074;2023-11-19T12:29:59;19.30;63.80
16074;DHT22;8141;52.664;5.074;2023-11-19T12:32:25;19.30;63.70
16074;DHT22;8141;52.664;5.074;2023-11-19T12:34:51;19.30;63.80
16074;DHT22;8141;52.664;5.074;2023-11-19T12:37:16;19.30;63.50
16074;DHT22;8141;52.664;5.074;2023-11-19T12:39:42;19.30;63.70
16074;DHT22;8141;52.664;5.074;2023-11-19T12:42:08;19.30;63.90
16074;DHT22;8141;52.664;5.074;2023-11-19T12:44:34;19.30;64.00
16074;DHT22;8141;52.664;5.074;2023-11-19T12:47:01;19.30;63.90
16074;DHT22;8141;52.664;5.074;2023-11-19T12:49:27;19.20;64.10
16074;DHT22;8141;52.664;5.074;2023-11-19T12:51:53;19.30;64.00
16074;DHT22;8141;52.664;5.074;2023-11-19T12:54:18;19.20;64.10
16074;DHT22;8141;52.664;5.074;2023-11-19T12:56:53;19.30;64.00
16074;DHT22;8141;52.664;5.074;2023-11-19T12:59:19;19.20;64.10
16074;DHT22;8141;52.664;5.074;2023-11-19T13:01:54;19.20;64.00
16074;DHT22;8141;52.664;5.074;2023-11-19T13:04:21;19.20;63.80
16074;DHT22;8141;52.664;5.074;2023-11-19T13:06:47;19.20;63.90
16074;DHT22;8141;52.664;5.074;2023-11-19T13:09:25;19.20;64.00
16074;DHT22;8141;52.664;5.074;2023-11-19T13:11:52;19.20;63.50
16074;DHT22;8141;52.664;5.074;2023-11-19T13:14:21;19.20;63.50
16074;DHT22;8141;52.664;5.074;2023-11-19T13:16:48;19.20;63.80
16074;DHT22;8141;52.664;5.074;2023-11-19T13:19:15;19.20;63.50
16074;DHT22;8141;52.664;5.074;2023-11-19T13:21:44;19.20;63.70
16074;DHT22;8141;52.664;5.074;2023-11-19T13:24:12;19.20;63.70
16074;DHT22;8141;52.664;5.074;2023-11-19T13:26:38;19.20;63.70
16074;DHT22;8141;52.664;5.074;2023-11-19T13:29:04;19.20;63.70
16074;DHT22;8141;52.664;5.074;2023-11-19T13:31:30;19.20;63.70
16074;DHT22;8141;52.664;5.074;2023-11-19T13:33:56;19.20;63.60
16074;DHT22;8141;52.664;5.074;2023-11-19T13:36:23;19.20;63.80
16074;DHT22;8141;52.664;5.074;2023-11-19T13:38:50;19.20;63.70
16074;DHT22;8141;52.664;5.074;2023-11-19T13:41:16;19.20;63.90
16074;DHT22;8141;52.664;5.074;2023-11-19T13:43:42;19.20;63.90
16074;DHT22;8141;52.664;5.074;2023-11-19T13:46:09;19.20;63.70
16074;DHT22;8141;52.664;5.074;2023-11-19T13:48:38;19.20;63.70
16074;DHT22;8141;52.664;5.074;2023-11-19T13:51:03;19.20;63.80
16074;DHT22;8141;52.664;5.074;2023-11-19T13:53:29;19.10;63.70
16074;DHT22;8141;52.664;5.074;2023-11-19T13:55:55;19.20;63.90
16074;DHT22;8141;52.664;5.074;2023-11-19T13:58:21;19.20;63.70
16074;DHT22;8141;52.664;5.074;2023-11-19T14:00:46;19.20;63.70
16074;DHT22;8141;52.664;5.074;2023-11-19T14:03:12;19.20;63.80
16074;DHT22;8141;52.664;5.074;2023-11-19T14:05:38;19.10;63.80
16074;DHT22;8141;52.664;5.074;2023-11-19T14:08:04;19.10;64.10
16074;DHT22;8141;52.664;5.074;2023-11-19T14:10:39;19.10;64.20
16074;DHT22;8141;52.664;5.074;2023-11-19T14:13:08;19.20;65.10
16074;DHT22;8141;52.664;5.074;2023-11-19T14:15:34;19.20;64.60
16074;DHT22;8141;52.664;5.074;2023-11-19T14:18:00;19.20;64.70
16074;DHT22;8141;52.664;5.074;2023-11-19T14:20:26;19.10;64.70
16074;DHT22;8141;52.664;5.074;2023-11-19T14:22:52;19.20;65.20
16074;DHT22;8141;52.664;5.074;2023-11-19T14:25:18;19.20;65.20
16074;DHT22;8141;52.664;5.074;2023-11-19T14:27:45;19.10;65.40
16074;DHT22;8141;52.664;5.074;2023-11-19T14:30:13;19.20;65.50
16074;DHT22;8141;52.664;5.074;2023-11-19T14:32:39;19.10;65.50
16074;DHT22;8141;52.664;5.074;2023-11-19T14:35:07;19.10;65.40
16074;DHT22;8141;52.664;5.074;2023-11-19T14:37:33;19.20;65.20
16074;DHT22;8141;52.664;5.074;2023-11-19T14:39:59;19.10;65.20
16074;DHT22;8141;52.664;5.074;2023-11-19T14:42:26;19.20;65.20
16074;DHT22;8141;52.664;5.074;2023-11-19T14:44:52;19.10;65.20
16074;DHT22;8141;52.664;5.074;2023-11-19T14:47:18;19.10;65.00
16074;DHT22;8141;52.664;5.074;2023-11-19T14:49:44;19.10;65.00
16074;DHT22;8141;52.664;5.074;2023-11-19T14:52:10;19.10;65.00
16074;DHT22;8141;52.664;5.074;2023-11-19T14:54:36;19.10;65.20
16074;DHT22;8141;52.664;5.074;2023-11-19T14:57:02;19.10;65.40
16074;DHT22;8141;52.664;5.074;2023-11-19T14:59:28;19.10;65.70
16074;DHT22;8141;52.664;5.074;2023-11-19T15:01:54;19.20;66.00
16074;DHT22;8141;52.664;5.074;2023-11-19T15:04:20;19.20;66.10
16074;DHT22;8141;52.664;5.074;2023-11-19T15:06:45;19.20;66.00
16074;DHT22;8141;52.664;5.074;2023-11-19T15:09:11;19.30;66.00
16074;DHT22;8141;52.664;5.074;2023-11-19T15:11:42;19.40;66.10
16074;DHT22;8141;52.664;5.074;2023-11-19T15:14:08;19.40;66.10
16074;DHT22;8141;52.664;5.074;2023-11-19T15:16:34;19.40;66.20
16074;DHT22;8141;52.664;5.074;2023-11-19T15:19:00;19.40;66.40
16074;DHT22;8141;52.664;5.074;2023-11-19T15:21:28;19.40;66.40
16074;DHT22;8141;52.664;5.074;2023-11-19T15:23:57;19.50;66.60
16074;DHT22;8141;52.664;5.074;2023-11-19T15:26:23;19.50;66.70
16074;DHT22;8141;52.664;5.074;2023-11-19T15:28:48;19.50;66.40
16074;DHT22;8141;52.664;5.074;2023-11-19T15:31:14;19.50;66.90
16074;DHT22;8141;52.664;5.074;2023-11-19T15:33:41;19.60;67.00
16074;DHT22;8141;52.664;5.074;2023-11-19T15:36:07;19.60;66.90
16074;DHT22;8141;52.664;5.074;2023-11-19T15:38:33;19.60;67.10
16074;DHT22;8141;52.664;5.074;2023-11-19T15:41:00;19.60;66.90
16074;DHT22;8141;52.664;5.074;2023-11-19T15:43:25;19.60;67.40
16074;DHT22;8141;52.664;5.074;2023-11-19T15:45:51;19.70;67.50
16074;DHT22;8141;52.664;5.074;2023-11-19T15:48:16;19.70;67.80
16074;DHT22;8141;52.664;5.074;2023-11-19T15:50:43;19.70;68.00
16074;DHT22;8141;52.664;5.074;2023-11-19T15:53:10;19.80;67.80
16074;DHT22;8141;52.664;5.074;2023-11-19T15:55:36;19.80;67.30
16074;DHT22;8141;52.664;5.074;2023-11-19T15:58:02;19.80;67.40
16074;DHT22;8141;52.664;5.074;2023-11-19T16:00:27;19.80;67.60
16074;DHT22;8141;52.664;5.074;2023-11-19T16:02:53;19.80;67.20
16074;DHT22;8141;52.664;5.074;2023-11-19T16:05:19;19.90;67.20
16074;DHT22;8141;52.664;5.074;2023-11-19T16:07:45;19.80;67.40